sensor_id;sensor_type;location;lat;lon;timestamp;P1;durP1;ratioP1;P2;durP2;ratioP2
11319;SDS011;5715;48.234;14.320;2022-11-18T00:01:08;6.77;;;4.57;;
11319;SDS011;5715;48.234;14.320;2022-11-18T00:04:01;7.10;;;6.00;;
11319;SDS011;5715;48.234;14.320;2022-11-18T00:06:49;9.07;;;5.03;;
11319;SDS011;5715;48.234;14.320;2022-11-18T00:09:37;11.23;;;5.27;;
11319;SDS011;5715;48.234;14.320;2022-11-18T00:12:24;8.67;;;5.10;;
11319;SDS011;5715;48.234;14.320;2022-11-18T00:15:31;7.53;;;4.93;;
11319;SDS011;5715;48.234;14.320;2022-11-18T00:18:19;4.77;;;3.33;;
11319;SDS011;5715;48.234;14.320;2022-11-18T00:21:07;5.87;;;4.47;;
11319;SDS011;5715;48.234;14.320;2022-11-18T00:23:57;8.07;;;5.60;;
11319;SDS011;5715;48.234;14.320;2022-11-18T00:26:45;7.90;;;5.20;;
11319;SDS011;5715;48.234;14.320;2022-11-18T00:29:33;7.37;;;4.07;;
11319;SDS011;5715;48.234;14.320;2022-11-18T00:32:21;9.73;;;6.43;;
11319;SDS011;5715;48.234;14.320;2022-11-18T00:35:09;7.13;;;4.53;;
11319;SDS011;5715;48.234;14.320;2022-11-18T00:37:57;5.77;;;3.93;;
11319;SDS011;5715;48.234;14.320;2022-11-18T00:40:44;3.30;;;3.00;;
11319;SDS011;5715;48.234;14.320;2022-11-18T00:43:32;8.23;;;5.60;;
11319;SDS011;5715;48.234;14.320;2022-11-18T00:46:21;8.23;;;4.27;;
11319;SDS011;5715;48.234;14.320;2022-11-18T00:49:09;5.27;;;3.77;;
11319;SDS011;5715;48.234;14.320;2022-11-18T00:51:56;5.77;;;4.43;;
11319;SDS011;5715;48.234;14.320;2022-11-18T00:54:44;6.60;;;4.40;;
11319;SDS011;5715;48.234;14.320;2022-11-18T00:57:32;4.73;;;3.30;;
11319;SDS011;5715;48.234;14.320;2022-11-18T01:00:20;9.17;;;5.17;;
11319;SDS011;5715;48.234;14.320;2022-11-18T01:03:08;5.67;;;4.23;;
11319;SDS011;5715;48.234;14.320;2022-11-18T01:05:58;4.73;;;2.63;;
11319;SDS011;5715;48.234;14.320;2022-11-18T01:08:46;7.37;;;4.77;;
11319;SDS011;5715;48.234;14.320;2022-11-18T01:11:34;6.23;;;3.93;;
11319;SDS011;5715;48.234;14.320;2022-11-18T01:14:40;5.03;;;4.53;;
11319;SDS011;5715;48.234;14.320;2022-11-18T01:17:29;4.90;;;3.43;;
11319;SDS011;5715;48.234;14.320;2022-11-18T01:20:17;7.00;;;3.93;;
11319;SDS011;5715;48.234;14.320;2022-11-18T01:23:05;4.27;;;3.87;;
11319;SDS011;5715;48.234;14.320;2022-11-18T01:25:53;6.90;;;4.00;;
11319;SDS011;5715;48.234;14.320;2022-11-18T01:28:42;16.30;;;3.63;;
11319;SDS011;5715;48.234;14.320;2022-11-18T01:31:31;6.27;;;4.70;;
11319;SDS011;5715;48.234;14.320;2022-11-18T01:34:19;3.63;;;3.33;;
11319;SDS011;5715;48.234;14.320;2022-11-18T01:37:06;7.87;;;5.30;;
11319;SDS011;5715;48.234;14.320;2022-11-18T01:39:54;3.80;;;2.43;;
11319;SDS011;5715;48.234;14.320;2022-11-18T01:42:42;9.37;;;5.43;;
11319;SDS011;5715;48.234;14.320;2022-11-18T01:48:29;8.83;;;5.03;;
11319;SDS011;5715;48.234;14.320;2022-11-18T01:51:29;5.77;;;3.83;;
11319;SDS011;5715;48.234;14.320;2022-11-18T01:54:35;4.67;;;3.33;;
11319;SDS011;5715;48.234;14.320;2022-11-18T01:57:29;5.67;;;3.93;;
11319;SDS011;5715;48.234;14.320;2022-11-18T02:00:18;4.27;;;3.87;;
11319;SDS011;5715;48.234;14.320;2022-11-18T02:03:06;3.40;;;3.10;;
11319;SDS011;5715;48.234;14.320;2022-11-18T02:05:55;5.03;;;4.50;;
11319;SDS011;5715;48.234;14.320;2022-11-18T02:08:46;6.07;;;3.77;;
11319;SDS011;5715;48.234;14.320;2022-11-18T02:11:36;4.93;;;4.53;;
11319;SDS011;5715;48.234;14.320;2022-11-18T02:14:42;4.80;;;3.83;;
11319;SDS011;5715;48.234;14.320;2022-11-18T02:18:37;3.90;;;3.60;;
11319;SDS011;5715;48.234;14.320;2022-11-18T02:20:59;4.87;;;4.23;;
11319;SDS011;5715;48.234;14.320;2022-11-18T02:24:25;6.53;;;4.17;;
11319;SDS011;5715;48.234;14.320;2022-11-18T02:31:00;5.23;;;4.33;;
11319;SDS011;5715;48.234;14.320;2022-11-18T02:34:37;5.90;;;4.90;;
11319;SDS011;5715;48.234;14.320;2022-11-18T02:37:35;8.13;;;3.97;;
11319;SDS011;5715;48.234;14.320;2022-11-18T02:40:54;6.33;;;4.40;;
11319;SDS011;5715;48.234;14.320;2022-11-18T02:43:53;6.70;;;4.47;;
11319;SDS011;5715;48.234;14.320;2022-11-18T02:46:50;5.50;;;3.73;;
11319;SDS011;5715;48.234;14.320;2022-11-18T02:49:47;6.23;;;5.07;;
11319;SDS011;5715;48.234;14.320;2022-11-18T02:52:44;3.23;;;2.93;;
11319;SDS011;5715;48.234;14.320;2022-11-18T02:55:35;8.73;;;4.67;;
11319;SDS011;5715;48.234;14.320;2022-11-18T02:58:26;5.93;;;3.70;;
11319;SDS011;5715;48.234;14.320;2022-11-18T03:01:17;6.77;;;4.13;;
11319;SDS011;5715;48.234;14.320;2022-11-18T03:04:12;5.23;;;3.70;;
11319;SDS011;5715;48.234;14.320;2022-11-18T03:07:05;5.13;;;3.73;;
11319;SDS011;5715;48.234;14.320;2022-11-18T03:10:01;8.27;;;4.87;;
11319;SDS011;5715;48.234;14.320;2022-11-18T03:16:11;8.73;;;4.97;;
11319;SDS011;5715;48.234;14.320;2022-11-18T03:19:08;7.47;;;5.67;;
11319;SDS011;5715;48.234;14.320;2022-11-18T03:22:12;7.97;;;5.50;;
11319;SDS011;5715;48.234;14.320;2022-11-18T03:25:27;7.23;;;5.03;;
11319;SDS011;5715;48.234;14.320;2022-11-18T03:28:35;5.57;;;4.37;;
11319;SDS011;5715;48.234;14.320;2022-11-18T03:32:03;9.73;;;4.70;;
11319;SDS011;5715;48.234;14.320;2022-11-18T03:35:00;15.10;;;5.07;;
11319;SDS011;5715;48.234;14.320;2022-11-18T03:38:01;5.53;;;4.27;;
11319;SDS011;5715;48.234;14.320;2022-11-18T03:40:57;5.73;;;4.53;;
11319;SDS011;5715;48.234;14.320;2022-11-18T03:43:52;10.17;;;5.73;;
11319;SDS011;5715;48.234;14.320;2022-11-18T03:46:52;9.53;;;5.73;;
11319;SDS011;5715;48.234;14.320;2022-11-18T03:49:59;8.47;;;4.23;;
11319;SDS011;5715;48.234;14.320;2022-11-18T03:53:03;6.40;;;4.73;;
11319;SDS011;5715;48.234;14.320;2022-11-18T03:55:55;7.83;;;3.83;;
11319;SDS011;5715;48.234;14.320;2022-11-18T03:58:53;7.40;;;5.23;;
11319;SDS011;5715;48.234;14.320;2022-11-18T04:02:03;8.13;;;5.57;;
11319;SDS011;5715;48.234;14.320;2022-11-18T04:05:04;7.00;;;4.60;;
11319;SDS011;5715;48.234;14.320;2022-11-18T04:07:57;8.90;;;4.97;;
11319;SDS011;5715;48.234;14.320;2022-11-18T04:10:55;4.73;;;4.00;;
11319;SDS011;5715;48.234;14.320;2022-11-18T04:13:51;5.87;;;4.43;;
11319;SDS011;5715;48.234;14.320;2022-11-18T04:16:39;7.50;;;5.03;;
11319;SDS011;5715;48.234;14.320;2022-11-18T04:19:30;6.00;;;4.53;;
11319;SDS011;5715;48.234;14.320;2022-11-18T04:22:20;6.77;;;4.23;;
11319;SDS011;5715;48.234;14.320;2022-11-18T04:25:08;8.87;;;5.20;;
11319;SDS011;5715;48.234;14.320;2022-11-18T04:27:56;9.50;;;5.27;;
11319;SDS011;5715;48.234;14.320;2022-11-18T04:30:44;7.10;;;5.67;;
11319;SDS011;5715;48.234;14.320;2022-11-18T04:33:32;7.23;;;4.73;;
11319;SDS011;5715;48.234;14.320;2022-11-18T04:36:20;8.20;;;5.00;;
11319;SDS011;5715;48.234;14.320;2022-11-18T04:39:07;5.93;;;4.67;;
11319;SDS011;5715;48.234;14.320;2022-11-18T04:41:55;7.87;;;5.27;;
11319;SDS011;5715;48.234;14.320;2022-11-18T04:44:43;6.87;;;4.33;;
11319;SDS011;5715;48.234;14.320;2022-11-18T04:47:31;8.07;;;5.50;;
11319;SDS011;5715;48.234;14.320;2022-11-18T04:50:18;7.00;;;4.70;;
11319;SDS011;5715;48.234;14.320;2022-11-18T04:53:06;5.77;;;4.20;;
11319;SDS011;5715;48.234;14.320;2022-11-18T04:55:54;6.20;;;4.60;;
11319;SDS011;5715;48.234;14.320;2022-11-18T04:58:41;6.63;;;5.40;;
11319;SDS011;5715;48.234;14.320;2022-11-18T05:01:29;3.43;;;3.13;;
11319;SDS011;5715;48.234;14.320;2022-11-18T05:04:20;6.73;;;4.63;;
11319;SDS011;5715;48.234;14.320;2022-11-18T05:07:12;5.37;;;4.70;;
11319;SDS011;5715;48.234;14.320;2022-11-18T05:10:01;13.50;;;5.90;;
11319;SDS011;5715;48.234;14.320;2022-11-18T05:12:49;6.03;;;4.43;;
11319;SDS011;5715;48.234;14.320;2022-11-18T05:15:38;6.80;;;4.57;;
11319;SDS011;5715;48.234;14.320;2022-11-18T05:18:26;4.30;;;3.37;;
11319;SDS011;5715;48.234;14.320;2022-11-18T05:21:17;6.57;;;4.87;;
11319;SDS011;5715;48.234;14.320;2022-11-18T05:24:05;3.67;;;3.37;;
11319;SDS011;5715;48.234;14.320;2022-11-18T05:26:54;6.73;;;4.80;;
11319;SDS011;5715;48.234;14.320;2022-11-18T05:29:42;6.60;;;4.40;;
11319;SDS011;5715;48.234;14.320;2022-11-18T05:32:30;7.03;;;5.17;;
11319;SDS011;5715;48.234;14.320;2022-11-18T05:35:17;5.20;;;4.80;;
11319;SDS011;5715;48.234;14.320;2022-11-18T05:38:06;5.83;;;4.90;;
11319;SDS011;5715;48.234;14.320;2022-11-18T05:40:56;7.93;;;5.70;;
11319;SDS011;5715;48.234;14.320;2022-11-18T05:43:44;6.60;;;5.67;;
11319;SDS011;5715;48.234;14.320;2022-11-18T05:46:32;9.83;;;6.03;;
11319;SDS011;5715;48.234;14.320;2022-11-18T05:49:20;4.50;;;3.63;;
11319;SDS011;5715;48.234;14.320;2022-11-18T05:52:08;17.53;;;5.20;;
11319;SDS011;5715;48.234;14.320;2022-11-18T05:54:57;7.17;;;4.13;;
11319;SDS011;5715;48.234;14.320;2022-11-18T05:57:44;16.33;;;4.53;;
11319;SDS011;5715;48.234;14.320;2022-11-18T06:00:32;4.53;;;4.10;;
11319;SDS011;5715;48.234;14.320;2022-11-18T06:03:21;9.43;;;4.80;;
11319;SDS011;5715;48.234;14.320;2022-11-18T06:06:17;7.67;;;4.20;;
11319;SDS011;5715;48.234;14.320;2022-11-18T06:09:08;11.40;;;5.50;;
11319;SDS011;5715;48.234;14.320;2022-11-18T06:11:58;6.50;;;4.80;;
11319;SDS011;5715;48.234;14.320;2022-11-18T06:15:01;6.40;;;5.23;;
11319;SDS011;5715;48.234;14.320;2022-11-18T06:18:11;10.30;;;5.33;;
11319;SDS011;5715;48.234;14.320;2022-11-18T06:21:16;12.70;;;4.53;;
11319;SDS011;5715;48.234;14.320;2022-11-18T06:24:04;9.17;;;5.23;;
11319;SDS011;5715;48.234;14.320;2022-11-18T06:26:52;8.33;;;4.40;;
11319;SDS011;5715;48.234;14.320;2022-11-18T06:29:40;6.67;;;4.00;;
11319;SDS011;5715;48.234;14.320;2022-11-18T06:32:28;8.70;;;4.97;;
11319;SDS011;5715;48.234;14.320;2022-11-18T06:35:16;5.00;;;4.03;;
11319;SDS011;5715;48.234;14.320;2022-11-18T06:38:04;6.10;;;4.00;;
11319;SDS011;5715;48.234;14.320;2022-11-18T06:40:52;6.77;;;4.87;;
11319;SDS011;5715;48.234;14.320;2022-11-18T06:43:45;8.60;;;4.37;;
11319;SDS011;5715;48.234;14.320;2022-11-18T06:46:33;6.40;;;4.80;;
11319;SDS011;5715;48.234;14.320;2022-11-18T06:49:39;5.63;;;3.90;;
11319;SDS011;5715;48.234;14.320;2022-11-18T06:52:27;6.67;;;4.37;;
11319;SDS011;5715;48.234;14.320;2022-11-18T06:55:14;5.20;;;4.13;;
11319;SDS011;5715;48.234;14.320;2022-11-18T06:58:02;5.80;;;4.00;;
11319;SDS011;5715;48.234;14.320;2022-11-18T07:00:49;9.87;;;4.40;;
11319;SDS011;5715;48.234;14.320;2022-11-18T07:03:38;5.57;;;3.70;;
11319;SDS011;5715;48.234;14.320;2022-11-18T07:06:28;6.57;;;4.97;;
11319;SDS011;5715;48.234;14.320;2022-11-18T07:09:19;6.97;;;5.50;;
11319;SDS011;5715;48.234;14.320;2022-11-18T07:12:07;8.30;;;5.13;;
11319;SDS011;5715;48.234;14.320;2022-11-18T07:14:54;8.13;;;5.33;;
11319;SDS011;5715;48.234;14.320;2022-11-18T07:17:42;4.73;;;4.03;;
11319;SDS011;5715;48.234;14.320;2022-11-18T07:20:30;10.00;;;5.03;;
11319;SDS011;5715;48.234;14.320;2022-11-18T07:23:17;6.87;;;4.13;;
11319;SDS011;5715;48.234;14.320;2022-11-18T07:26:05;5.83;;;4.43;;
11319;SDS011;5715;48.234;14.320;2022-11-18T07:28:54;8.67;;;4.20;;
11319;SDS011;5715;48.234;14.320;2022-11-18T07:31:41;6.97;;;4.77;;
11319;SDS011;5715;48.234;14.320;2022-11-18T07:34:29;5.13;;;4.63;;
11319;SDS011;5715;48.234;14.320;2022-11-18T07:37:16;6.57;;;5.00;;
11319;SDS011;5715;48.234;14.320;2022-11-18T07:40:04;8.97;;;5.90;;
11319;SDS011;5715;48.234;14.320;2022-11-18T07:42:52;6.70;;;4.17;;
11319;SDS011;5715;48.234;14.320;2022-11-18T07:45:40;6.67;;;4.60;;
11319;SDS011;5715;48.234;14.320;2022-11-18T07:48:28;5.87;;;4.53;;
11319;SDS011;5715;48.234;14.320;2022-11-18T07:51:17;4.73;;;4.00;;
11319;SDS011;5715;48.234;14.320;2022-11-18T07:54:12;8.27;;;4.93;;
11319;SDS011;5715;48.234;14.320;2022-11-18T07:57:04;6.80;;;4.43;;
11319;SDS011;5715;48.234;14.320;2022-11-18T07:59:51;5.10;;;4.23;;
11319;SDS011;5715;48.234;14.320;2022-11-18T08:02:39;5.73;;;5.13;;
11319;SDS011;5715;48.234;14.320;2022-11-18T08:05:26;5.57;;;3.60;;
11319;SDS011;5715;48.234;14.320;2022-11-18T08:08:14;9.63;;;4.63;;
11319;SDS011;5715;48.234;14.320;2022-11-18T08:11:02;8.40;;;4.73;;
11319;SDS011;5715;48.234;14.320;2022-11-18T08:13:53;5.27;;;4.50;;
11319;SDS011;5715;48.234;14.320;2022-11-18T08:16:40;5.47;;;4.53;;
11319;SDS011;5715;48.234;14.320;2022-11-18T08:19:28;5.33;;;3.97;;
11319;SDS011;5715;48.234;14.320;2022-11-18T08:22:15;7.60;;;5.33;;
11319;SDS011;5715;48.234;14.320;2022-11-18T08:25:06;5.10;;;3.67;;
11319;SDS011;5715;48.234;14.320;2022-11-18T08:27:54;5.27;;;4.07;;
11319;SDS011;5715;48.234;14.320;2022-11-18T08:30:42;6.20;;;3.43;;
11319;SDS011;5715;48.234;14.320;2022-11-18T08:33:30;4.63;;;3.53;;
11319;SDS011;5715;48.234;14.320;2022-11-18T08:36:20;4.80;;;3.90;;
11319;SDS011;5715;48.234;14.320;2022-11-18T08:39:10;4.87;;;3.47;;
11319;SDS011;5715;48.234;14.320;2022-11-18T08:41:58;6.83;;;4.77;;
11319;SDS011;5715;48.234;14.320;2022-11-18T08:44:47;5.87;;;4.10;;
11319;SDS011;5715;48.234;14.320;2022-11-18T08:47:35;4.50;;;3.47;;
11319;SDS011;5715;48.234;14.320;2022-11-18T08:50:23;6.10;;;4.97;;
11319;SDS011;5715;48.234;14.320;2022-11-18T08:53:11;9.73;;;4.83;;
11319;SDS011;5715;48.234;14.320;2022-11-18T08:56:01;5.97;;;4.53;;
11319;SDS011;5715;48.234;14.320;2022-11-18T08:58:49;8.47;;;4.67;;
11319;SDS011;5715;48.234;14.320;2022-11-18T09:01:37;6.37;;;4.60;;
11319;SDS011;5715;48.234;14.320;2022-11-18T09:04:28;7.37;;;4.90;;
11319;SDS011;5715;48.234;14.320;2022-11-18T09:07:19;5.60;;;4.30;;
11319;SDS011;5715;48.234;14.320;2022-11-18T09:10:08;3.97;;;2.50;;
11319;SDS011;5715;48.234;14.320;2022-11-18T09:12:56;6.07;;;4.67;;
11319;SDS011;5715;48.234;14.320;2022-11-18T09:16:04;5.03;;;3.17;;
11319;SDS011;5715;48.234;14.320;2022-11-18T09:18:53;4.87;;;3.13;;
11319;SDS011;5715;48.234;14.320;2022-11-18T09:21:43;5.53;;;3.53;;
11319;SDS011;5715;48.234;14.320;2022-11-18T09:24:31;6.53;;;4.17;;
11319;SDS011;5715;48.234;14.320;2022-11-18T09:27:19;6.67;;;3.67;;
11319;SDS011;5715;48.234;14.320;2022-11-18T09:30:07;5.97;;;3.67;;
11319;SDS011;5715;48.234;14.320;2022-11-18T09:32:55;6.47;;;4.10;;
11319;SDS011;5715;48.234;14.320;2022-11-18T09:35:43;7.13;;;3.87;;
11319;SDS011;5715;48.234;14.320;2022-11-18T09:38:31;6.00;;;4.20;;
11319;SDS011;5715;48.234;14.320;2022-11-18T09:48:12;6.87;;;5.33;;
11319;SDS011;5715;48.234;14.320;2022-11-18T09:51:27;11.63;;;5.93;;
11319;SDS011;5715;48.234;14.320;2022-11-18T09:54:24;6.60;;;4.67;;
11319;SDS011;5715;48.234;14.320;2022-11-18T09:57:40;9.83;;;4.97;;
11319;SDS011;5715;48.234;14.320;2022-11-18T10:00:33;8.00;;;5.30;;
11319;SDS011;5715;48.234;14.320;2022-11-18T10:06:26;5.73;;;3.93;;
11319;SDS011;5715;48.234;14.320;2022-11-18T10:12:31;4.40;;;3.43;;
11319;SDS011;5715;48.234;14.320;2022-11-18T10:15:35;4.83;;;4.13;;
11319;SDS011;5715;48.234;14.320;2022-11-18T10:19:33;10.27;;;4.87;;
11319;SDS011;5715;48.234;14.320;2022-11-18T10:25:11;4.63;;;3.83;;
11319;SDS011;5715;48.234;14.320;2022-11-18T10:28:12;4.07;;;3.67;;
11319;SDS011;5715;48.234;14.320;2022-11-18T10:31:10;8.53;;;4.93;;
11319;SDS011;5715;48.234;14.320;2022-11-18T10:33:58;6.77;;;4.50;;
11319;SDS011;5715;48.234;14.320;2022-11-18T10:37:01;5.40;;;4.17;;
11319;SDS011;5715;48.234;14.320;2022-11-18T10:39:53;6.57;;;4.60;;
11319;SDS011;5715;48.234;14.320;2022-11-18T10:42:44;7.87;;;5.47;;
11319;SDS011;5715;48.234;14.320;2022-11-18T10:45:33;7.60;;;3.67;;
11319;SDS011;5715;48.234;14.320;2022-11-18T10:48:21;4.13;;;3.40;;
11319;SDS011;5715;48.234;14.320;2022-11-18T10:51:19;4.30;;;3.03;;
11319;SDS011;5715;48.234;14.320;2022-11-18T11:00:31;4.10;;;3.43;;
11319;SDS011;5715;48.234;14.320;2022-11-18T11:03:25;7.60;;;4.00;;
11319;SDS011;5715;48.234;14.320;2022-11-18T11:12:11;5.67;;;2.27;;
11319;SDS011;5715;48.234;14.320;2022-11-18T11:15:13;3.60;;;3.07;;
11319;SDS011;5715;48.234;14.320;2022-11-18T11:21:26;4.50;;;2.70;;
11319;SDS011;5715;48.234;14.320;2022-11-18T11:24:15;3.20;;;2.73;;
11319;SDS011;5715;48.234;14.320;2022-11-18T11:30:23;2.70;;;2.50;;
11319;SDS011;5715;48.234;14.320;2022-11-18T11:36:59;2.50;;;2.20;;
11319;SDS011;5715;48.234;14.320;2022-11-18T11:40:20;1.67;;;1.57;;
11319;SDS011;5715;48.234;14.320;2022-11-18T11:43:53;4.00;;;1.77;;
11319;SDS011;5715;48.234;14.320;2022-11-18T11:46:59;4.60;;;2.03;;
11319;SDS011;5715;48.234;14.320;2022-11-18T11:53:56;1.00;;;1.00;;
11319;SDS011;5715;48.234;14.320;2022-11-18T11:57:32;0.47;;;0.47;;
11319;SDS011;5715;48.234;14.320;2022-11-18T12:00:43;0.67;;;0.67;;
11319;SDS011;5715;48.234;14.320;2022-11-18T12:08:02;0.60;;;0.60;;
11319;SDS011;5715;48.234;14.320;2022-11-18T12:14:27;1.00;;;0.87;;
11319;SDS011;5715;48.234;14.320;2022-11-18T12:17:50;0.60;;;0.60;;
11319;SDS011;5715;48.234;14.320;2022-11-18T12:21:01;0.50;;;0.50;;
11319;SDS011;5715;48.234;14.320;2022-11-18T12:24:23;0.50;;;0.50;;
11319;SDS011;5715;48.234;14.320;2022-11-18T12:27:04;1.23;;;0.93;;
11319;SDS011;5715;48.234;14.320;2022-11-18T12:29:56;2.00;;;0.80;;
11319;SDS011;5715;48.234;14.320;2022-11-18T12:32:53;0.43;;;0.43;;
11319;SDS011;5715;48.234;14.320;2022-11-18T12:35:47;0.60;;;0.60;;
11319;SDS011;5715;48.234;14.320;2022-11-18T12:38:37;0.50;;;0.50;;
11319;SDS011;5715;48.234;14.320;2022-11-18T12:42:10;0.50;;;0.50;;
11319;SDS011;5715;48.234;14.320;2022-11-18T12:44:51;0.40;;;0.40;;
11319;SDS011;5715;48.234;14.320;2022-11-18T12:53:42;0.70;;;0.70;;
11319;SDS011;5715;48.234;14.320;2022-11-18T12:56:35;1.20;;;0.80;;
11319;SDS011;5715;48.234;14.320;2022-11-18T12:59:33;0.43;;;0.43;;
11319;SDS011;5715;48.234;14.320;2022-11-18T13:02:25;0.70;;;0.70;;
11319;SDS011;5715;48.234;14.320;2022-11-18T13:05:19;0.60;;;0.60;;
11319;SDS011;5715;48.234;14.320;2022-11-18T13:08:13;0.73;;;0.73;;
11319;SDS011;5715;48.234;14.320;2022-11-18T13:11:14;0.43;;;0.43;;
11319;SDS011;5715;48.234;14.320;2022-11-18T13:17:44;0.50;;;0.50;;
11319;SDS011;5715;48.234;14.320;2022-11-18T13:20:38;0.80;;;0.80;;
11319;SDS011;5715;48.234;14.320;2022-11-18T13:23:30;0.87;;;0.87;;
11319;SDS011;5715;48.234;14.320;2022-11-18T13:26:44;0.60;;;0.60;;
11319;SDS011;5715;48.234;14.320;2022-11-18T13:32:57;0.70;;;0.70;;
11319;SDS011;5715;48.234;14.320;2022-11-18T13:35:45;0.67;;;0.67;;
11319;SDS011;5715;48.234;14.320;2022-11-18T13:38:33;0.60;;;0.60;;
11319;SDS011;5715;48.234;14.320;2022-11-18T13:41:21;0.80;;;0.73;;
11319;SDS011;5715;48.234;14.320;2022-11-18T13:50:46;0.50;;;0.50;;
11319;SDS011;5715;48.234;14.320;2022-11-18T13:53:40;0.80;;;0.80;;
11319;SDS011;5715;48.234;14.320;2022-11-18T13:56:30;0.40;;;0.40;;
11319;SDS011;5715;48.234;14.320;2022-11-18T13:59:21;1.73;;;0.80;;
11319;SDS011;5715;48.234;14.320;2022-11-18T14:02:10;0.50;;;0.50;;
11319;SDS011;5715;48.234;14.320;2022-11-18T14:05:00;0.60;;;0.60;;
11319;SDS011;5715;48.234;14.320;2022-11-18T14:07:59;0.70;;;0.70;;
11319;SDS011;5715;48.234;14.320;2022-11-18T14:10:52;0.60;;;0.60;;
11319;SDS011;5715;48.234;14.320;2022-11-18T14:13:47;1.23;;;1.03;;
11319;SDS011;5715;48.234;14.320;2022-11-18T14:16:40;1.27;;;1.13;;
11319;SDS011;5715;48.234;14.320;2022-11-18T14:19:29;0.67;;;0.67;;
11319;SDS011;5715;48.234;14.320;2022-11-18T14:22:20;1.50;;;0.73;;
11319;SDS011;5715;48.234;14.320;2022-11-18T14:25:17;0.80;;;0.80;;
11319;SDS011;5715;48.234;14.320;2022-11-18T14:28:16;0.70;;;0.70;;
11319;SDS011;5715;48.234;14.320;2022-11-18T14:34:20;0.57;;;0.57;;
11319;SDS011;5715;48.234;14.320;2022-11-18T14:37:12;0.60;;;0.60;;
11319;SDS011;5715;48.234;14.320;2022-11-18T14:40:01;0.60;;;0.60;;
11319;SDS011;5715;48.234;14.320;2022-11-18T14:42:48;0.60;;;0.60;;
11319;SDS011;5715;48.234;14.320;2022-11-18T14:45:36;1.00;;;0.63;;
11319;SDS011;5715;48.234;14.320;2022-11-18T14:48:24;0.60;;;0.60;;
11319;SDS011;5715;48.234;14.320;2022-11-18T14:51:18;0.57;;;0.57;;
11319;SDS011;5715;48.234;14.320;2022-11-18T14:54:06;4.50;;;0.60;;
11319;SDS011;5715;48.234;14.320;2022-11-18T14:57:09;0.47;;;0.47;;
11319;SDS011;5715;48.234;14.320;2022-11-18T15:00:02;0.63;;;0.63;;
11319;SDS011;5715;48.234;14.320;2022-11-18T15:02:51;0.40;;;0.40;;
11319;SDS011;5715;48.234;14.320;2022-11-18T15:05:39;3.33;;;3.20;;
11319;SDS011;5715;48.234;14.320;2022-11-18T15:08:27;0.50;;;0.50;;
11319;SDS011;5715;48.234;14.320;2022-11-18T15:11:14;0.70;;;0.60;;
11319;SDS011;5715;48.234;14.320;2022-11-18T15:14:02;0.60;;;0.60;;
11319;SDS011;5715;48.234;14.320;2022-11-18T15:16:50;0.60;;;0.60;;
11319;SDS011;5715;48.234;14.320;2022-11-18T15:19:37;3.40;;;0.87;;
11319;SDS011;5715;48.234;14.320;2022-11-18T15:22:27;0.70;;;0.70;;
11319;SDS011;5715;48.234;14.320;2022-11-18T15:25:14;1.63;;;0.53;;
11319;SDS011;5715;48.234;14.320;2022-11-18T15:28:02;0.80;;;0.80;;
11319;SDS011;5715;48.234;14.320;2022-11-18T15:30:50;3.23;;;1.07;;
11319;SDS011;5715;48.234;14.320;2022-11-18T15:33:37;0.97;;;0.80;;
11319;SDS011;5715;48.234;14.320;2022-11-18T15:36:25;0.60;;;0.60;;
11319;SDS011;5715;48.234;14.320;2022-11-18T15:39:13;0.60;;;0.60;;
11319;SDS011;5715;48.234;14.320;2022-11-18T15:42:01;0.50;;;0.50;;
11319;SDS011;5715;48.234;14.320;2022-11-18T15:44:48;0.53;;;0.53;;
11319;SDS011;5715;48.234;14.320;2022-11-18T15:47:36;1.30;;;0.57;;
11319;SDS011;5715;48.234;14.320;2022-11-18T15:50:23;0.50;;;0.50;;
11319;SDS011;5715;48.234;14.320;2022-11-18T15:53:11;0.70;;;0.70;;
11319;SDS011;5715;48.234;14.320;2022-11-18T15:59:08;0.50;;;0.50;;
11319;SDS011;5715;48.234;14.320;2022-11-18T16:01:58;0.60;;;0.60;;
11319;SDS011;5715;48.234;14.320;2022-11-18T16:04:46;0.60;;;0.60;;
11319;SDS011;5715;48.234;14.320;2022-11-18T16:07:33;0.43;;;0.43;;
11319;SDS011;5715;48.234;14.320;2022-11-18T16:10:22;4.33;;;0.70;;
11319;SDS011;5715;48.234;14.320;2022-11-18T16:13:28;1.80;;;1.23;;
11319;SDS011;5715;48.234;14.320;2022-11-18T16:16:19;0.90;;;0.90;;
11319;SDS011;5715;48.234;14.320;2022-11-18T16:19:10;0.70;;;0.70;;
11319;SDS011;5715;48.234;14.320;2022-11-18T16:22:01;0.60;;;0.60;;
11319;SDS011;5715;48.234;14.320;2022-11-18T16:24:48;0.90;;;0.90;;
11319;SDS011;5715;48.234;14.320;2022-11-18T16:27:39;0.70;;;0.70;;
11319;SDS011;5715;48.234;14.320;2022-11-18T16:30:26;0.70;;;0.70;;
11319;SDS011;5715;48.234;14.320;2022-11-18T16:33:32;1.50;;;1.40;;
11319;SDS011;5715;48.234;14.320;2022-11-18T16:36:24;1.00;;;1.00;;
11319;SDS011;5715;48.234;14.320;2022-11-18T16:39:14;1.00;;;1.00;;
11319;SDS011;5715;48.234;14.320;2022-11-18T16:42:05;0.80;;;0.80;;
11319;SDS011;5715;48.234;14.320;2022-11-18T16:44:56;1.00;;;1.00;;
11319;SDS011;5715;48.234;14.320;2022-11-18T16:47:44;1.10;;;1.10;;
11319;SDS011;5715;48.234;14.320;2022-11-18T16:50:31;1.00;;;1.00;;
11319;SDS011;5715;48.234;14.320;2022-11-18T16:53:19;0.93;;;0.93;;
11319;SDS011;5715;48.234;14.320;2022-11-18T16:56:06;1.10;;;1.10;;
11319;SDS011;5715;48.234;14.320;2022-11-18T16:58:55;1.97;;;0.97;;
11319;SDS011;5715;48.234;14.320;2022-11-18T17:01:46;1.00;;;0.90;;
11319;SDS011;5715;48.234;14.320;2022-11-18T17:04:34;1.87;;;1.00;;
11319;SDS011;5715;48.234;14.320;2022-11-18T17:07:24;1.13;;;1.10;;
11319;SDS011;5715;48.234;14.320;2022-11-18T17:10:11;0.90;;;0.90;;
11319;SDS011;5715;48.234;14.320;2022-11-18T17:13:05;1.80;;;1.10;;
11319;SDS011;5715;48.234;14.320;2022-11-18T17:15:52;1.10;;;1.10;;
11319;SDS011;5715;48.234;14.320;2022-11-18T17:18:40;1.40;;;1.30;;
11319;SDS011;5715;48.234;14.320;2022-11-18T17:21:28;1.10;;;1.10;;
11319;SDS011;5715;48.234;14.320;2022-11-18T17:24:18;1.10;;;1.00;;
11319;SDS011;5715;48.234;14.320;2022-11-18T17:27:08;0.80;;;0.80;;
11319;SDS011;5715;48.234;14.320;2022-11-18T17:29:56;1.37;;;1.27;;
11319;SDS011;5715;48.234;14.320;2022-11-18T17:32:43;0.90;;;0.90;;
11319;SDS011;5715;48.234;14.320;2022-11-18T17:35:30;1.00;;;1.00;;
11319;SDS011;5715;48.234;14.320;2022-11-18T17:38:18;1.30;;;1.20;;
11319;SDS011;5715;48.234;14.320;2022-11-18T17:41:06;0.87;;;0.87;;
11319;SDS011;5715;48.234;14.320;2022-11-18T17:43:56;0.60;;;0.60;;
11319;SDS011;5715;48.234;14.320;2022-11-18T17:46:45;0.83;;;0.83;;
11319;SDS011;5715;48.234;14.320;2022-11-18T17:49:33;1.00;;;1.00;;
11319;SDS011;5715;48.234;14.320;2022-11-18T17:52:20;1.00;;;1.00;;
11319;SDS011;5715;48.234;14.320;2022-11-18T17:55:08;0.70;;;0.70;;
11319;SDS011;5715;48.234;14.320;2022-11-18T17:57:56;0.80;;;0.80;;
11319;SDS011;5715;48.234;14.320;2022-11-18T18:00:43;0.80;;;0.80;;
11319;SDS011;5715;48.234;14.320;2022-11-18T18:03:31;0.70;;;0.70;;
11319;SDS011;5715;48.234;14.320;2022-11-18T18:06:18;0.60;;;0.60;;
11319;SDS011;5715;48.234;14.320;2022-11-18T18:09:07;0.73;;;0.73;;
11319;SDS011;5715;48.234;14.320;2022-11-18T18:11:54;1.40;;;1.30;;
11319;SDS011;5715;48.234;14.320;2022-11-18T18:14:42;4.07;;;1.47;;
11319;SDS011;5715;48.234;14.320;2022-11-18T18:17:29;1.73;;;1.50;;
11319;SDS011;5715;48.234;14.320;2022-11-18T18:20:17;0.80;;;0.80;;
11319;SDS011;5715;48.234;14.320;2022-11-18T18:23:05;1.10;;;1.10;;
11319;SDS011;5715;48.234;14.320;2022-11-18T18:25:53;3.57;;;1.00;;
11319;SDS011;5715;48.234;14.320;2022-11-18T18:28:41;0.80;;;0.80;;
11319;SDS011;5715;48.234;14.320;2022-11-18T18:31:33;1.17;;;1.10;;
11319;SDS011;5715;48.234;14.320;2022-11-18T18:34:22;4.20;;;1.20;;
11319;SDS011;5715;48.234;14.320;2022-11-18T18:37:09;1.73;;;1.40;;
11319;SDS011;5715;48.234;14.320;2022-11-18T18:39:57;2.73;;;1.43;;
11319;SDS011;5715;48.234;14.320;2022-11-18T18:42:44;1.00;;;1.00;;
11319;SDS011;5715;48.234;14.320;2022-11-18T18:45:32;1.53;;;1.40;;